Time;durP1;ratioP1;P1;durP2;ratioP2;P2;SDS_P1;SDS_P2;PMS_P1;PMS_P2;Temp;Humidity;BMP_temperature;BMP_pressure;BME280_temperature;BME280_humidity;BME280_pressure;Samples;Min_cycle;Max_cycle;Signal;HPM_P1;HPM_P2
2023/09/08 04:02:02;;;;;;;6.40;2.67;;;19.40;76.70;;;;;;5343062;23;20539;-71
2023/09/08 04:04:28;;;;;;;3.37;3.07;;;19.40;76.60;;;;;;4918591;29;20524;-71
2023/09/08 04:06:55;;;;;;;3.00;2.70;;;19.40;76.60;;;;;;4918532;29;20441;-71
2023/09/08 04:09:22;;;;;;;2.83;2.33;;;19.30;76.70;;;;;;4918439;29;20444;-71
2023/09/08 04:11:48;;;;;;;3.00;2.70;;;19.30;76.70;;;;;;4918338;29;20460;-71
2023/09/08 04:14:15;;;;;;;3.20;2.67;;;19.30;76.60;;;;;;4918378;29;20448;-71
2023/09/08 04:16:42;;;;;;;3.43;2.90;;;19.30;76.70;;;;;;4918618;29;20445;-71
2023/09/08 04:19:10;;;;;;;3.47;3.17;;;19.30;76.70;;;;;;4918294;29;20448;-71
2023/09/08 04:21:37;;;;;;;2.93;2.63;;;19.30;76.60;;;;;;4918110;29;20492;-71
2023/09/08 04:24:04;;;;;;;2.83;2.50;;;19.30;76.70;;;;;;4918269;29;20463;-71
2023/09/08 04:26:31;;;;;;;3.63;3.17;;;19.30;76.50;;;;;;4918147;29;20449;-71
2023/09/08 04:28:58;;;;;;;3.20;2.90;;;19.30;76.70;;;;;;4917817;29;20938;-71
2023/09/08 04:31:24;;;;;;;2.70;2.40;;;19.30;76.70;;;;;;4918024;29;20464;-70
2023/09/08 04:33:53;;;;;;;3.77;2.97;;;19.30;76.70;;;;;;4918065;29;20440;-67
2023/09/08 04:36:21;;;;;;;2.70;2.40;;;19.30;76.70;;;;;;4917991;29;20457;-67
2023/09/08 04:38:47;;;;;;;3.10;2.80;;;19.30;76.60;;;;;;4917946;29;20500;-67
2023/09/08 04:41:14;;;;;;;2.67;2.47;;;19.30;76.60;;;;;;4917847;29;20468;-67
2023/09/08 04:43:41;;;;;;;3.00;2.70;;;19.30;76.90;;;;;;4917483;29;20488;-67
2023/09/08 04:46:08;;;;;;;4.23;2.70;;;19.30;76.80;;;;;;4918577;29;20448;-67
2023/09/08 04:48:35;;;;;;;3.30;3.00;;;19.30;76.70;;;;;;4917800;29;20895;-67
2023/09/08 04:51:02;;;;;;;3.37;3.07;;;19.30;76.80;;;;;;4917679;29;20479;-67
2023/09/08 04:53:30;;;;;;;3.20;2.90;;;19.30;76.90;;;;;;4917722;29;20532;-67
2023/09/08 04:55:56;;;;;;;3.43;3.13;;;19.30;76.90;;;;;;4917602;29;20457;-67
2023/09/08 04:58:23;;;;;;;3.00;2.70;;;19.20;77.00;;;;;;4917636;29;20452;-67
2023/09/08 05:00:50;;;;;;;3.33;3.03;;;19.20;76.90;;;;;;4917356;29;20476;-68
2023/09/08 05:03:16;;;;;;;3.47;3.10;;;19.30;76.90;;;;;;4917991;29;20477;-67
2023/09/08 05:05:43;;;;;;;4.13;2.50;;;19.30;77.00;;;;;;4917509;29;20452;-67
2023/09/08 05:08:10;;;;;;;3.37;2.60;;;19.30;77.00;;;;;;4917136;29;20958;-67
2023/09/08 05:10:37;;;;;;;2.97;2.67;;;19.40;77.00;;;;;;4917346;29;20449;-69
2023/09/08 05:13:04;;;;;;;3.77;3.47;;;19.40;77.00;;;;;;4917382;29;20448;-67
2023/09/08 05:15:31;;;;;;;3.20;2.87;;;19.50;76.90;;;;;;4917092;29;20836;-67
2023/09/08 05:17:58;;;;;;;4.67;3.37;;;19.50;76.70;;;;;;4917310;29;20449;-68
2023/09/08 05:20:24;;;;;;;3.23;2.93;;;19.60;76.50;;;;;;4917190;29;20452;-67
2023/09/08 05:22:51;;;;;;;3.10;2.80;;;19.70;76.40;;;;;;4917136;29;20543;-67
2023/09/08 05:25:18;;;;;;;2.90;2.67;;;19.80;76.20;;;;;;4917213;29;20445;-67
2023/09/08 05:27:46;;;;;;;3.30;3.00;;;19.90;76.00;;;;;;4916717;29;20476;-68
2023/09/08 05:30:13;;;;;;;3.50;3.20;;;20.00;75.70;;;;;;4916595;29;21006;-67
2023/09/08 05:32:40;;;;;;;3.43;3.10;;;20.20;75.40;;;;;;4917050;29;20473;-67
2023/09/08 05:35:07;;;;;;;3.03;2.80;;;20.30;75.10;;;;;;4917091;29;20508;-67
2023/09/08 05:37:34;;;;;;;3.87;3.17;;;20.40;75.10;;;;;;4917061;29;20452;-67
2023/09/08 05:40:00;;;;;;;4.80;3.17;;;20.50;74.90;;;;;;4916704;29;20884;-67
2023/09/08 05:42:27;;;;;;;3.30;3.00;;;20.70;74.60;;;;;;4916845;29;20491;-67
2023/09/08 05:44:55;;;;;;;3.77;3.40;;;20.80;74.10;;;;;;4916986;29;20448;-67
2023/09/08 05:47:22;;;;;;;4.20;3.67;;;21.00;73.80;;;;;;4916945;29;20444;-66
2023/09/08 05:49:49;;;;;;;4.80;3.13;;;21.10;73.90;;;;;;4916943;29;20468;-67
2023/09/08 05:52:15;;;;;;;3.30;3.00;;;21.30;74.30;;;;;;4916578;29;20847;-68
2023/09/08 05:54:42;;;;;;;3.63;2.93;;;21.80;73.30;;;;;;4916931;29;20823;-68
2023/09/08 05:57:08;;;;;;;3.20;2.40;;;22.50;72.40;;;;;;4916862;29;20472;-68
2023/09/08 05:59:35;;;;;;;3.50;2.73;;;23.40;69.90;;;;;;4916485;29;20877;-68
2023/09/08 06:02:03;;;;;;;3.40;2.80;;;24.50;67.40;;;;;;4916287;29;20476;-68
2023/09/08 06:04:32;;;;;;;2.93;2.73;;;25.50;64.40;;;;;;4916559;29;20958;-68
2023/09/08 06:06:58;;;;;;;3.53;2.80;;;26.00;62.50;;;;;;4916504;29;20956;-68
2023/09/08 06:09:25;;;;;;;3.63;2.90;;;26.10;62.00;;;;;;4916826;29;20456;-68
2023/09/08 06:11:51;;;;;;;3.03;2.57;;;26.10;61.80;;;;;;4916683;29;20472;-68
2023/09/08 06:14:18;;;;;;;4.37;2.80;;;26.20;61.30;;;;;;4916781;29;20519;-68
2023/09/08 06:16:45;;;;;;;3.17;2.30;;;26.20;62.30;;;;;;4916432;29;21001;-68
2023/09/08 06:19:15;;;;;;;3.20;2.90;;;27.00;60.90;;;;;;4916732;29;20543;-68
2023/09/08 06:21:41;;;;;;;2.70;2.40;;;27.70;59.00;;;;;;4916696;29;20465;-68
2023/09/08 06:24:08;;;;;;;3.03;2.73;;;28.20;58.30;;;;;;4916650;29;20866;-68
2023/09/08 06:26:35;;;;;;;3.10;2.80;;;28.50;57.40;;;;;;4916708;29;20441;-68
2023/09/08 06:29:02;;;;;;;3.43;3.13;;;28.40;57.70;;;;;;4916640;29;20449;-68
2023/09/08 06:31:28;;;;;;;3.53;3.23;;;28.70;57.40;;;;;;4916559;29;20867;-68
2023/09/08 06:33:55;;;;;;;3.20;2.90;;;28.70;57.20;;;;;;4916769;29;20835;-69
2023/09/08 06:36:23;;;;;;;3.37;2.80;;;28.50;57.40;;;;;;4916935;29;20453;-69
2023/09/08 06:38:50;;;;;;;2.90;2.70;;;27.90;58.90;;;;;;4916502;29;20456;-69
2023/09/08 06:41:17;;;;;;;3.80;3.20;;;27.60;59.30;;;;;;4919740;29;20468;-69
2023/09/08 06:43:44;;;;;;;3.40;3.20;;;27.20;60.40;;;;;;4919647;29;20846;-69
2023/09/08 06:46:11;;;;;;;3.07;2.87;;;27.40;60.50;;;;;;4919971;29;20445;-69
2023/09/08 06:48:38;;;;;;;5.43;2.70;;;27.20;60.60;;;;;;4919963;29;20444;-69
2023/09/08 06:51:04;;;;;;;3.40;3.10;;;28.30;59.40;;;;;;4919818;29;20477;-69
2023/09/08 06:53:33;;;;;;;3.03;2.73;;;28.60;58.00;;;;;;4919877;29;20445;-69
2023/09/08 06:55:59;;;;;;;3.63;2.80;;;29.50;56.50;;;;;;4919842;29;20452;-69
2023/09/08 06:58:26;;;;;;;2.60;2.40;;;30.30;55.00;;;;;;4919893;29;20456;-69
2023/09/08 07:00:54;;;;;;;2.43;2.23;;;31.10;53.00;;;;;;4919538;29;20480;-69
2023/09/08 07:03:21;;;;;;;2.90;2.60;;;30.50;54.10;;;;;;4919381;29;20508;-69
2023/09/08 07:05:48;;;;;;;2.70;2.50;;;30.10;55.60;;;;;;4919551;29;20483;-69
2023/09/08 07:08:15;;;;;;;2.53;2.33;;;29.70;56.60;;;;;;4919458;29;20445;-69
2023/09/08 07:10:44;;;;;;;2.93;2.70;;;29.60;56.50;;;;;;4919370;29;20452;-68
2023/09/08 07:13:10;;;;;;;3.03;2.73;;;29.20;57.10;;;;;;4919451;29;20471;-68
2023/09/08 07:15:37;;;;;;;3.20;2.90;;;28.00;60.30;;;;;;4919416;29;20445;-69
2023/09/08 07:18:05;;;;;;;3.80;2.80;;;27.30;62.00;;;;;;4919383;29;20575;-68
2023/09/08 07:20:31;;;;;;;3.40;2.70;;;26.50;63.80;;;;;;4919238;29;20527;-68
2023/09/08 07:22:58;;;;;;;4.10;3.20;;;25.90;65.60;;;;;;4918905;29;20499;-68
2023/09/08 07:25:25;;;;;;;3.50;3.20;;;25.50;66.50;;;;;;4919272;29;20444;-69
2023/09/08 07:27:53;;;;;;;3.63;3.20;;;25.20;67.30;;;;;;4919345;29;20453;-69
2023/09/08 07:30:20;;;;;;;3.10;2.80;;;24.80;68.50;;;;;;4920243;29;20483;-68
2023/09/08 07:32:46;;;;;;;4.37;2.87;;;24.60;68.90;;;;;;4919058;29;20469;-68
2023/09/08 07:35:16;;;;;;;3.57;2.60;;;24.40;70.30;;;;;;4919076;29;20843;-68
2023/09/08 07:37:43;;;;;;;3.43;3.13;;;24.40;70.70;;;;;;4918997;29;20453;-69
2023/09/08 07:40:11;;;;;;;4.90;3.20;;;24.70;69.90;;;;;;4919090;29;20448;-68
2023/09/08 07:42:37;;;;;;;3.20;2.90;;;25.00;68.90;;;;;;4918803;29;20468;-68
2023/09/08 07:45:09;;;;;;;2.73;2.53;;;25.20;68.40;;;;;;4918674;29;20946;-68
2023/09/08 07:47:38;;;;;;;3.30;3.00;;;25.10;68.60;;;;;;4918666;29;20906;-69
2023/09/08 07:50:19;;;;;;;3.73;3.10;;;25.10;69.30;;;;;;4918587;29;20453;-68
2023/09/08 07:52:45;;;;;;;3.23;2.80;;;25.20;68.50;;;;;;4918018;29;20543;-68
2023/09/08 07:55:12;;;;;;;5.53;3.13;;;25.50;67.30;;;;;;4918766;29;20444;-68
2023/09/08 07:57:39;;;;;;;3.07;2.77;;;25.50;67.50;;;;;;4918406;29;20860;-69
2023/09/08 08:00:10;;;;;;;2.60;2.40;;;25.70;68.00;;;;;;4918670;29;20873;-69
2023/09/08 08:02:37;;;;;;;3.17;2.60;;;25.70;67.90;;;;;;4918161;29;20519;-68
2023/09/08 08:05:04;;;;;;;2.90;2.67;;;25.90;67.30;;;;;;4918483;29;20552;-68
2023/09/08 08:07:31;;;;;;;3.40;3.10;;;26.20;66.70;;;;;;4918497;29;20830;-68
2023/09/08 08:09:58;;;;;;;4.33;2.90;;;26.20;66.10;;;;;;4918170;29;20449;-68
2023/09/08 08:12:25;;;;;;;3.70;2.90;;;26.30;67.20;;;;;;4918319;29;20460;-68
2023/09/08 08:14:52;;;;;;;3.50;3.20;;;26.20;68.10;;;;;;4918297;29;20516;-68
2023/09/08 08:17:20;;;;;;;3.83;3.43;;;26.30;67.60;;;;;;4918361;29;20457;-69
2023/09/08 08:19:47;;;;;;;3.07;2.77;;;26.50;67.10;;;;;;4918323;29;20858;-70
2023/09/08 08:22:13;;;;;;;3.20;2.53;;;26.60;66.80;;;;;;4918202;29;20507;-68
2023/09/08 08:24:40;;;;;;;3.20;2.90;;;26.50;66.40;;;;;;4918879;29;20689;-68
2023/09/08 08:27:07;;;;;;;3.20;2.90;;;26.20;67.30;;;;;;4918045;29;20445;-68
2023/09/08 08:29:33;;;;;;;2.73;2.53;;;25.90;68.20;;;;;;4918148;29;20445;-68
2023/09/08 08:32:00;;;;;;;2.70;2.50;;;26.00;68.30;;;;;;4917926;29;20468;-68
2023/09/08 08:34:28;;;;;;;3.47;3.07;;;26.30;68.20;;;;;;4918068;29;20496;-69
2023/09/08 08:36:55;;;;;;;5.33;3.00;;;26.60;66.70;;;;;;4917865;29;20448;-67
2023/09/08 08:39:21;;;;;;;2.93;2.67;;;26.60;67.30;;;;;;4917872;29;20476;-68
2023/09/08 08:41:48;;;;;;;2.77;2.57;;;26.50;67.70;;;;;;4917792;29;20465;-67
2023/09/08 08:44:18;;;;;;;3.90;2.90;;;26.70;65.60;;;;;;4917482;29;21001;-68
2023/09/08 08:46:47;;;;;;;2.90;2.70;;;26.40;67.20;;;;;;4917862;29;20531;-68
2023/09/08 08:49:16;;;;;;;5.97;3.30;;;26.50;65.40;;;;;;4917765;29;20452;-68
2023/09/08 08:51:46;;;;;;;3.63;2.87;;;26.40;65.60;;;;;;4917263;29;20982;-67
2023/09/08 08:54:14;;;;;;;2.87;2.67;;;26.40;67.30;;;;;;4917687;29;20472;-68
2023/09/08 08:56:41;;;;;;;4.63;2.77;;;26.40;66.90;;;;;;4917652;29;20449;-68
2023/09/08 08:59:09;;;;;;;2.80;2.60;;;26.40;67.80;;;;;;4917637;29;20461;-68
2023/09/08 09:01:36;;;;;;;3.07;2.77;;;26.40;67.60;;;;;;4917272;29;20484;-69
2023/09/08 09:04:06;;;;;;;2.70;2.50;;;26.40;67.00;;;;;;4917393;29;20484;-69
2023/09/08 09:06:33;;;;;;;3.07;2.80;;;26.30;67.20;;;;;;4917435;29;20448;-68
2023/09/08 09:09:01;;;;;;;2.90;2.60;;;26.60;66.40;;;;;;4917429;29;20536;-68
2023/09/08 09:11:28;;;;;;;3.40;3.10;;;26.40;67.50;;;;;;4917381;29;20496;-69
2023/09/08 09:13:55;;;;;;;3.00;2.80;;;26.30;67.20;;;;;;4917122;29;20456;-67
2023/09/08 09:16:21;;;;;;;3.30;3.00;;;26.20;68.00;;;;;;4917038;29;20452;-68
2023/09/08 09:18:56;;;;;;;3.40;2.67;;;26.10;67.90;;;;;;4917326;29;20444;-68
2023/09/08 09:21:23;;;;;;;2.97;2.77;;;26.20;67.80;;;;;;4917216;29;20506;-68
2023/09/08 09:23:50;;;;;;;3.17;2.77;;;26.10;67.30;;;;;;4917170;29;20559;-68
2023/09/08 09:26:26;;;;;;;5.03;2.97;;;26.20;67.30;;;;;;4917237;29;20480;-68
2023/09/08 09:28:53;;;;;;;3.07;2.77;;;25.90;67.90;;;;;;4917227;29;20806;-69
2023/09/08 09:31:24;;;;;;;3.37;3.07;;;26.00;68.10;;;;;;4917091;29;20479;-68
2023/09/08 09:34:03;;;;;;;5.27;3.17;;;26.00;67.90;;;;;;4917185;29;20521;-69
2023/09/08 09:36:29;;;;;;;4.37;3.20;;;25.90;68.10;;;;;;4917191;29;20437;-69
2023/09/08 09:38:59;;;;;;;2.87;2.57;;;26.10;67.60;;;;;;4917003;29;20509;-69
2023/09/08 09:41:28;;;;;;;3.43;2.90;;;26.30;68.40;;;;;;4916975;29;20468;-69
2023/09/08 09:43:56;;;;;;;3.53;3.23;;;26.30;68.30;;;;;;4917013;29;20488;-69
2023/09/08 09:46:22;;;;;;;2.83;2.63;;;26.40;67.30;;;;;;4916994;29;20453;-69
2023/09/08 09:48:52;;;;;;;3.70;3.40;;;26.20;67.60;;;;;;4916925;29;20449;-69
2023/09/08 09:51:20;;;;;;;3.60;3.10;;;26.30;68.50;;;;;;4916655;29;20496;-68
2023/09/08 09:53:47;;;;;;;4.60;2.80;;;26.30;67.30;;;;;;4916963;29;20449;-68
2023/09/08 09:56:15;;;;;;;3.43;2.90;;;26.40;68.20;;;;;;4916939;29;20460;-68
2023/09/08 09:58:44;;;;;;;3.57;3.27;;;26.40;68.30;;;;;;4916948;29;20500;-68
2023/09/08 10:01:12;;;;;;;3.07;2.70;;;26.60;67.10;;;;;;4916920;29;20488;-68
2023/09/08 10:03:40;;;;;;;3.60;3.30;;;26.60;67.50;;;;;;4917335;29;20476;-69
2023/09/08 10:06:07;;;;;;;3.50;3.20;;;26.80;67.00;;;;;;4916725;29;20449;-69
2023/09/08 10:08:36;;;;;;;4.20;3.37;;;26.70;67.40;;;;;;4916589;29;20460;-69
2023/09/08 10:11:07;;;;;;;3.47;3.17;;;26.50;67.10;;;;;;4916665;29;20480;-69
2023/09/08 10:13:41;;;;;;;3.40;3.10;;;26.70;67.70;;;;;;4916816;29;20500;-68
2023/09/08 10:16:12;;;;;;;3.10;2.80;;;26.90;67.00;;;;;;4944588;23;20530;-76
2023/09/08 10:18:42;;;;;;;3.47;3.17;;;27.00;67.20;;;;;;4924718;29;20485;-78
2023/09/08 10:21:10;;;;;;;7.90;3.83;;;27.00;66.90;;;;;;4924273;29;20445;-77
2023/09/08 10:23:42;;;;;;;2.90;2.60;;;27.30;66.60;;;;;;4922906;29;20484;-78
2023/09/08 10:26:11;;;;;;;3.93;3.63;;;27.30;65.60;;;;;;4923161;29;20479;-79
2023/09/08 10:28:38;;;;;;;3.63;3.27;;;27.20;65.20;;;;;;4928684;29;20456;-78
2023/09/08 10:31:06;;;;;;;2.47;2.27;;;27.40;66.30;;;;;;4930091;29;20453;-77
2023/09/08 10:33:36;;;;;;;2.90;2.60;;;27.70;65.50;;;;;;4927172;29;20449;-78
2023/09/08 10:36:05;;;;;;;2.97;2.67;;;27.60;64.90;;;;;;4926838;29;20487;-78
2023/09/08 10:38:34;;;;;;;3.07;2.77;;;27.80;66.00;;;;;;4925168;29;20547;-78
2023/09/08 10:41:31;;;;;;;3.90;2.53;;;27.80;64.80;;;;;;4925265;29;20472;-78
2023/09/08 10:44:01;;;;;;;3.07;2.77;;;27.80;65.40;;;;;;4925558;29;20473;-78
2023/09/08 10:46:29;;;;;;;3.30;3.00;;;27.80;64.30;;;;;;4925781;29;20468;-78
2023/09/08 10:49:04;;;;;;;3.80;3.03;;;28.10;65.00;;;;;;4923253;29;20448;-78
2023/09/08 10:51:30;;;;;;;5.07;3.00;;;28.00;64.70;;;;;;4922328;29;20533;-78
2023/09/08 10:53:57;;;;;;;3.10;2.80;;;27.90;65.60;;;;;;4921342;29;20961;-78
2023/09/08 10:56:28;;;;;;;3.03;2.73;;;27.90;65.20;;;;;;4921721;29;20885;-77
2023/09/08 10:58:55;;;;;;;3.30;3.00;;;27.80;64.70;;;;;;4921812;29;20453;-78
2023/09/08 11:01:26;;;;;;;3.47;3.17;;;27.90;65.10;;;;;;4919817;29;20965;-77
2023/09/08 11:03:53;;;;;;;4.00;3.20;;;27.90;65.50;;;;;;4922456;29;20923;-78
2023/09/08 11:06:23;;;;;;;3.20;2.90;;;28.30;64.10;;;;;;4923084;29;20536;-77
2023/09/08 11:08:52;;;;;;;3.37;3.07;;;28.60;64.20;;;;;;4922346;29;20452;-77
2023/09/08 11:11:20;;;;;;;2.90;2.60;;;28.90;62.60;;;;;;4921950;29;20502;-77
2023/09/08 11:13:46;;;;;;;5.00;3.10;;;29.30;61.70;;;;;;4922268;29;20526;-78
2023/09/08 11:16:14;;;;;;;3.50;3.20;;;29.40;62.70;;;;;;4921639;29;20540;-78
2023/09/08 11:18:42;;;;;;;6.27;3.00;;;29.60;61.50;;;;;;4925429;29;20954;-78
2023/09/08 11:21:10;;;;;;;3.37;3.07;;;29.70;61.10;;;;;;4925688;29;20499;-78
2023/09/08 11:23:39;;;;;;;3.10;2.73;;;29.50;61.60;;;;;;4930812;29;20455;-79
2023/09/08 11:26:08;;;;;;;3.33;2.77;;;29.10;60.90;;;;;;4930394;29;20476;-79
2023/09/08 11:28:35;;;;;;;3.70;3.30;;;29.10;61.50;;;;;;4923290;29;20453;-78
2023/09/08 11:31:04;;;;;;;3.23;2.93;;;29.20;60.80;;;;;;4926352;29;20460;-78
2023/09/08 11:33:38;;;;;;;3.67;3.37;;;29.20;61.90;;;;;;4922026;29;20453;-78
2023/09/08 11:36:13;;;;;;;2.67;2.47;;;29.50;61.00;;;;;;4921486;29;20479;-78
2023/09/08 11:38:44;;;;;;;3.30;3.00;;;29.80;61.60;;;;;;4922016;29;20452;-80
2023/09/08 11:41:11;;;;;;;3.50;3.20;;;29.90;60.20;;;;;;4920303;29;20857;-78
2023/09/08 11:43:37;;;;;;;5.30;2.93;;;30.20;59.90;;;;;;4919940;29;20874;-77
2023/09/08 11:46:04;;;;;;;3.47;3.17;;;30.60;59.50;;;;;;4919433;29;20464;-77
2023/09/08 11:48:32;;;;;;;3.83;3.00;;;30.90;58.50;;;;;;4919976;29;20502;-77
2023/09/08 11:50:59;;;;;;;2.63;2.43;;;31.10;58.90;;;;;;4919676;29;20452;-78
2023/09/08 11:53:27;;;;;;;3.57;2.40;;;31.30;57.40;;;;;;4920083;29;20482;-77
2023/09/08 11:55:55;;;;;;;3.17;2.87;;;31.10;57.60;;;;;;4919215;29;20469;-77
2023/09/08 11:58:23;;;;;;;4.07;2.93;;;31.20;58.00;;;;;;4919544;29;20476;-78
2023/09/08 12:00:51;;;;;;;2.97;2.77;;;31.40;57.80;;;;;;4920068;29;21067;-79
2023/09/08 12:03:18;;;;;;;3.00;2.80;;;30.80;58.50;;;;;;4920173;29;20460;-80
2023/09/08 12:05:45;;;;;;;3.60;3.30;;;30.90;59.60;;;;;;4921391;29;20495;-79
2023/09/08 12:08:12;;;;;;;3.53;2.93;;;31.10;57.90;;;;;;4921239;29;20461;-78
2023/09/08 12:10:39;;;;;;;3.10;2.87;;;31.20;58.40;;;;;;4922858;29;20449;-72
2023/09/08 12:13:08;;;;;;;4.00;2.90;;;31.50;57.00;;;;;;4922086;29;20457;-79
2023/09/08 12:15:36;;;;;;;4.73;2.83;;;31.70;56.70;;;;;;4920230;29;20602;-78
2023/09/08 12:18:04;;;;;;;3.00;2.70;;;31.80;56.30;;;;;;4921483;29;20455;-78
2023/09/08 12:20:31;;;;;;;3.30;3.00;;;31.90;55.50;;;;;;4920363;29;20456;-78
2023/09/08 12:23:01;;;;;;;3.70;2.80;;;32.10;55.40;;;;;;4920250;29;20449;-79
2023/09/08 12:25:31;;;;;;;3.03;2.73;;;32.30;55.20;;;;;;4919028;29;20526;-79
2023/09/08 12:27:58;;;;;;;3.27;2.97;;;32.30;55.10;;;;;;4920143;29;20440;-77
2023/09/08 12:30:29;;;;;;;3.10;2.80;;;32.10;55.40;;;;;;4919092;29;20452;-78
2023/09/08 12:32:57;;;;;;;2.80;2.60;;;31.70;55.80;;;;;;4920124;29;20528;-77
2023/09/08 12:35:24;;;;;;;3.07;2.77;;;31.40;57.00;;;;;;4918811;29;20480;-77
2023/09/08 12:37:57;;;;;;;3.40;3.07;;;31.20;56.40;;;;;;4921217;29;20448;-77
2023/09/08 12:40:24;;;;;;;3.87;3.13;;;31.10;57.50;;;;;;4922570;29;20440;-78
2023/09/08 12:42:51;;;;;;;3.37;3.07;;;30.90;56.50;;;;;;4923563;29;20862;-77
2023/09/08 12:45:18;;;;;;;3.40;3.10;;;30.70;57.50;;;;;;4922684;29;20499;-78
2023/09/08 12:47:46;;;;;;;4.57;3.10;;;30.70;57.60;;;;;;4923678;29;20453;-77
2023/09/08 12:50:13;;;;;;;3.07;2.83;;;30.90;57.50;;;;;;4919744;29;20792;-77
2023/09/08 12:52:40;;;;;;;3.00;2.80;;;31.10;56.10;;;;;;4919709;29;20476;-78
2023/09/08 12:55:08;;;;;;;3.03;2.70;;;31.30;57.30;;;;;;4919536;29;20467;-77
2023/09/08 12:57:35;;;;;;;5.87;3.23;;;31.40;57.40;;;;;;4920424;29;20523;-78
2023/09/08 13:00:02;;;;;;;3.40;3.07;;;31.80;55.70;;;;;;4921223;29;20794;-78
2023/09/08 13:02:28;;;;;;;3.77;3.23;;;31.70;55.20;;;;;;4921832;29;20804;-78
2023/09/08 13:04:57;;;;;;;3.30;3.00;;;31.80;55.90;;;;;;4919121;29;20567;-77
2023/09/08 13:07:24;;;;;;;3.33;3.03;;;32.10;54.90;;;;;;4919375;29;20559;-78
2023/09/08 13:09:51;;;;;;;3.27;2.97;;;32.30;54.00;;;;;;4919950;29;20448;-77
2023/09/08 13:12:18;;;;;;;3.63;3.33;;;32.40;54.70;;;;;;4917280;29;20832;-77
2023/09/08 13:14:44;;;;;;;2.90;2.33;;;32.60;54.00;;;;;;4918445;29;20460;-78
2023/09/08 13:17:12;;;;;;;8.00;2.80;;;32.80;54.30;;;;;;4921056;29;20939;-79
2023/09/08 13:19:39;;;;;;;4.40;3.10;;;33.00;52.30;;;;;;4921740;29;20440;-78
2023/09/08 13:22:08;;;;;;;5.20;3.17;;;33.00;53.00;;;;;;4918170;29;20945;-78
2023/09/08 13:24:34;;;;;;;3.17;2.87;;;33.30;52.60;;;;;;4921179;29;20480;-77
2023/09/08 13:27:01;;;;;;;2.70;2.50;;;33.60;51.00;;;;;;4918838;29;20476;-78
2023/09/08 13:29:29;;;;;;;2.70;2.50;;;33.50;52.30;;;;;;4918624;29;20448;-78
2023/09/08 13:31:56;;;;;;;4.50;2.70;;;33.50;51.60;;;;;;4918560;29;20938;-78
2023/09/08 13:34:23;;;;;;;2.97;2.67;;;33.70;50.70;;;;;;4918901;29;20457;-77
2023/09/08 13:36:50;;;;;;;3.53;3.23;;;33.80;50.90;;;;;;4919243;29;20480;-78
2023/09/08 13:39:18;;;;;;;4.07;2.57;;;33.90;51.20;;;;;;4919533;29;20910;-78
2023/09/08 13:41:48;;;;;;;3.17;2.87;;;33.70;50.80;;;;;;4920590;29;20456;-77
2023/09/08 13:44:14;;;;;;;3.20;2.83;;;33.80;50.70;;;;;;4921803;29;20455;-78
2023/09/08 13:46:41;;;;;;;3.07;2.57;;;33.60;50.90;;;;;;4924253;29;20464;-79
2023/09/08 13:49:08;;;;;;;2.90;2.47;;;33.70;50.00;;;;;;4919845;29;20484;-79
2023/09/08 13:51:34;;;;;;;3.13;2.90;;;33.60;51.10;;;;;;4917911;29;20444;-79
2023/09/08 13:54:02;;;;;;;4.63;2.90;;;33.60;50.50;;;;;;4917624;29;20445;-78
2023/09/08 13:56:30;;;;;;;2.77;2.53;;;33.70;50.80;;;;;;4917321;29;20461;-78
2023/09/08 13:58:57;;;;;;;3.97;2.90;;;33.90;50.00;;;;;;4917567;29;20451;-78
2023/09/08 14:01:24;;;;;;;4.60;3.07;;;34.10;50.40;;;;;;4918362;29;20452;-77
2023/09/08 14:03:51;;;;;;;4.70;2.77;;;34.20;49.20;;;;;;4918984;29;20456;-78
2023/09/08 14:06:18;;;;;;;2.37;2.17;;;34.40;48.70;;;;;;4917482;29;20503;-78
2023/09/08 14:08:45;;;;;;;2.97;2.67;;;34.70;49.50;;;;;;4919213;29;20899;-78
2023/09/08 14:11:13;;;;;;;2.97;2.77;;;34.70;47.70;;;;;;4917620;29;20448;-78
2023/09/08 14:13:41;;;;;;;2.60;2.40;;;34.90;48.50;;;;;;4917339;29;20483;-77
2023/09/08 14:16:07;;;;;;;2.67;2.47;;;34.90;46.90;;;;;;4916885;29;21031;-78
2023/09/08 14:18:34;;;;;;;3.17;2.87;;;35.10;47.00;;;;;;4917229;29;20459;-78
2023/09/08 14:21:01;;;;;;;3.30;2.80;;;35.30;47.00;;;;;;4917038;29;20865;-78
2023/09/08 14:23:28;;;;;;;2.53;2.30;;;35.50;45.60;;;;;;4917231;29;20456;-78
2023/09/08 14:25:55;;;;;;;3.83;3.27;;;35.80;46.20;;;;;;4916686;29;20590;-79
2023/09/08 14:28:22;;;;;;;4.27;2.80;;;36.20;44.80;;;;;;4916805;29;20451;-77
2023/09/08 14:30:51;;;;;;;2.77;2.13;;;36.60;44.60;;;;;;4917113;29;20835;-78
2023/09/08 14:33:18;;;;;;;2.63;2.43;;;37.20;43.50;;;;;;4917797;29;20914;-79
2023/09/08 14:35:50;;;;;;;3.10;2.70;;;37.70;42.50;;;;;;4917420;29;20471;-78
2023/09/08 14:38:17;;;;;;;2.70;2.50;;;38.90;41.20;;;;;;4920007;29;20197;-77
2023/09/08 14:40:44;;;;;;;3.08;2.58;;;39.60;39.70;;;;;;4916478;29;20705;-77
2023/09/08 14:43:11;;;;;;;2.53;2.33;;;39.90;38.80;;;;;;4917290;29;20208;-78
2023/09/08 14:45:38;;;;;;;2.78;2.58;;;40.50;38.20;;;;;;4917609;29;20749;-79
2023/09/08 14:48:06;;;;;;;2.20;2.00;;;41.90;37.20;;;;;;4917744;29;20224;-79
2023/09/08 14:50:34;;;;;;;2.33;2.10;;;42.90;35.30;;;;;;4918478;29;20248;-79
2023/09/08 14:53:01;;;;;;;2.25;2.05;;;43.10;35.20;;;;;;4917936;29;20580;-79
2023/09/08 14:55:27;;;;;;;2.53;2.33;;;44.10;34.70;;;;;;4917840;29;20296;-80
2023/09/08 14:57:55;;;;;;;2.63;2.10;;;44.70;33.20;;;;;;4918578;29;20216;-79
2023/09/08 15:00:22;;;;;;;2.33;1.80;;;44.50;33.60;;;;;;4919167;29;20637;-79
2023/09/08 15:02:48;;;;;;;2.30;2.10;;;44.90;32.90;;;;;;4921629;29;20219;-79
2023/09/08 15:05:16;;;;;;;3.42;2.55;;;45.30;32.60;;;;;;4921666;29;20239;-79
2023/09/08 15:07:43;;;;;;;2.65;2.40;;;45.20;32.30;;;;;;4922054;29;20211;-79
2023/09/08 15:10:10;;;;;;;2.50;2.30;;;44.10;33.60;;;;;;4923930;29;20204;-79
2023/09/08 15:12:37;;;;;;;2.90;2.30;;;43.70;34.10;;;;;;4922867;29;20215;-80
2023/09/08 15:15:04;;;;;;;2.58;2.38;;;44.10;34.10;;;;;;4923223;29;20231;-79
2023/09/08 15:17:31;;;;;;;1.95;1.85;;;44.90;33.30;;;;;;4922548;29;20192;-79
2023/09/08 15:19:59;;;;;;;2.60;2.13;;;45.10;32.90;;;;;;4920922;29;20227;-79
2023/09/08 15:22:27;;;;;;;2.22;2.03;;;45.70;32.70;;;;;;4921900;29;20260;-80
2023/09/08 15:24:54;;;;;;;2.58;2.15;;;44.90;32.70;;;;;;4920768;29;20208;-79
2023/09/08 15:27:21;;;;;;;2.80;2.15;;;44.80;32.90;;;;;;4922145;29;20210;-79
2023/09/08 15:29:47;;;;;;;3.53;2.40;;;42.90;34.30;;;;;;4921201;29;20212;-80
2023/09/08 15:32:14;;;;;;;2.38;2.17;;;41.40;36.70;;;;;;4922270;29;20211;-80
2023/09/08 15:34:43;;;;;;;2.87;2.50;;;39.90;38.50;;;;;;4922778;29;20215;-79
2023/09/08 15:37:09;;;;;;;2.90;2.60;;;38.60;39.40;;;;;;4922082;29;20448;-79
2023/09/08 15:39:37;;;;;;;2.80;2.50;;;36.80;41.30;;;;;;4922162;29;20452;-81
2023/09/08 15:42:04;;;;;;;4.73;2.40;;;35.80;42.70;;;;;;4925448;29;20448;-79
2023/09/08 15:44:31;;;;;;;2.50;2.10;;;34.80;44.60;;;;;;4924428;29;20456;-80
2023/09/08 15:46:57;;;;;;;3.47;2.87;;;34.20;45.30;;;;;;4924706;29;20885;-82
2023/09/08 15:49:24;;;;;;;2.90;2.33;;;33.70;46.30;;;;;;4923411;29;20452;-80
2023/09/08 15:51:51;;;;;;;2.67;2.47;;;33.40;46.70;;;;;;4925431;29;20472;-83
2023/09/08 15:54:17;;;;;;;4.57;2.50;;;32.90;47.90;;;;;;4923312;29;20452;-80
2023/09/08 15:56:45;;;;;;;2.73;2.43;;;32.40;48.30;;;;;;4923219;29;20468;-79
2023/09/08 15:59:12;;;;;;;2.93;2.57;;;32.00;49.20;;;;;;4922804;29;20453;-79
2023/09/08 16:01:39;;;;;;;4.00;2.80;;;31.70;50.40;;;;;;4924174;29;20961;-80
2023/09/08 16:04:09;;;;;;;2.60;2.40;;;31.50;50.60;;;;;;4922808;29;20448;-79
2023/09/08 16:06:35;;;;;;;3.00;2.70;;;31.40;50.40;;;;;;4919656;29;20867;-76
2023/09/08 16:09:03;;;;;;;2.90;2.60;;;31.10;51.10;;;;;;4920233;29;20448;-78
2023/09/08 16:11:30;;;;;;;2.80;2.60;;;31.10;51.20;;;;;;4920051;29;21021;-81
2023/09/08 16:13:58;;;;;;;3.23;2.93;;;30.90;51.20;;;;;;4921097;29;20445;-81
2023/09/08 16:16:25;;;;;;;2.57;2.37;;;30.60;52.30;;;;;;4975413;23;20541;-69
2023/09/08 16:18:52;;;;;;;2.90;2.20;;;30.50;52.50;;;;;;4918405;29;20451;-70
2023/09/08 16:21:19;;;;;;;2.80;2.60;;;30.40;51.90;;;;;;4918352;29;20500;-70
2023/09/08 16:23:46;;;;;;;2.73;2.47;;;30.20;52.20;;;;;;4918353;29;20448;-70
2023/09/08 16:26:13;;;;;;;2.77;2.33;;;30.20;52.00;;;;;;4918057;29;20488;-70
2023/09/08 16:28:40;;;;;;;2.80;2.60;;;30.20;52.60;;;;;;4919024;29;20448;-70
2023/09/08 16:31:08;;;;;;;2.80;2.60;;;30.30;52.70;;;;;;4918176;29;20460;-69
2023/09/08 16:33:35;;;;;;;2.87;2.60;;;30.30;52.90;;;;;;4918123;29;20448;-69
2023/09/08 16:36:02;;;;;;;3.03;2.43;;;30.40;53.00;;;;;;4917954;29;20632;-69
2023/09/08 16:38:28;;;;;;;2.70;2.50;;;30.30;53.10;;;;;;4917700;29;20973;-70
2023/09/08 16:40:57;;;;;;;3.63;2.67;;;30.20;53.40;;;;;;4917938;29;20449;-70
2023/09/08 16:43:24;;;;;;;2.73;2.43;;;30.10;53.30;;;;;;4917946;29;20456;-70
2023/09/08 16:45:50;;;;;;;3.00;2.47;;;30.00;53.90;;;;;;4917508;29;20876;-70
2023/09/08 16:48:18;;;;;;;3.13;2.83;;;29.90;54.00;;;;;;4917568;29;20931;-69
2023/09/08 16:50:45;;;;;;;3.53;2.37;;;29.90;54.60;;;;;;4917834;29;20471;-69